Ana Sayfa
METAR-TAF:

METAR-TAF

Havaalanları :

Winner, Güney Dakota, Amerika Birleşik Devletleri

Enlem: 43-23-26N, Boylam: 099-50-33W, yükseklik: 619 m

Güncel hava durumu gözlemi

Rapor saat 10:53 UTC de 16 dakika önce yapıldı.
Rüzgar batıdan 12 kt ve 21 kt'a kadar ani rüzgarlar
Sıcaklık 17°C
Nem 82%
Basınç 1004 hPa
Görüş mesafesi: 16.1 km
Açık gökyüzü

METAR: KICR 161053Z AUTO 28012G21KT 10SM CLR 17/14 A2965 RMK AO2 PK WND 27033/0959 WSHFT 0951 SLP021 T01720144

Saat: 06:09 (11:09 UTC)


TAF: eksik

4.000'den fazla havaalanı için hava durumu gözlemleri ve tahminleri (METAR ve TAF raporları).

Kullanılabilir istasyonlar harita üzerinde sarı ve kırmızı noktalarla gösterilir.

İstasyonun adını görmek için fareyi noktanın üzerinde gezdirin.

Sonrasında hava gözlem ve tahminlerini görmek için tıklayın.

Haritayı değiştirmek için: yaklaştırmak için siyah artı işaretli yeşil düğmeye ve uzaklaştırmak için de eksi işaretli düğmeye hızla tıklayın; bitişik haritalar için yeşil okları kullanın.


METAR-TAF: